createdAt,value
2018-06-14T00:00:35.020Z,0
2018-06-14T00:01:35.579Z,0
2018-06-14T00:02:36.120Z,0
2018-06-14T00:03:36.658Z,0
2018-06-14T00:04:37.199Z,0
2018-06-14T00:05:37.746Z,0
2018-06-14T00:06:38.290Z,0
2018-06-14T00:07:38.839Z,0
2018-06-14T00:08:39.391Z,0
2018-06-14T00:09:39.936Z,0
2018-06-14T00:10:40.484Z,0
2018-06-14T00:11:41.032Z,0
2018-06-14T00:12:41.587Z,0
2018-06-14T00:13:42.131Z,0
2018-06-14T00:14:42.677Z,0
2018-06-14T00:15:43.221Z,0
2018-06-14T00:16:43.768Z,0
2018-06-14T00:17:44.316Z,0
2018-06-14T00:18:44.860Z,0
2018-06-14T00:19:45.410Z,0
2018-06-14T00:20:45.955Z,0
2018-06-14T00:21:46.503Z,0
2018-06-14T00:22:47.054Z,0
2018-06-14T00:23:47.602Z,0
2018-06-14T00:24:48.147Z,0
2018-06-14T00:25:48.800Z,0
2018-06-14T00:26:49.345Z,0
2018-06-14T00:27:49.894Z,0
2018-06-14T00:28:50.434Z,0
2018-06-14T00:29:50.981Z,0
2018-06-14T00:30:51.523Z,0
2018-06-14T00:31:52.072Z,0
2018-06-14T00:32:52.620Z,0
2018-06-14T00:33:53.162Z,0
2018-06-14T00:34:53.707Z,0
2018-06-14T00:35:54.245Z,0
2018-06-14T00:36:54.810Z,0
2018-06-14T00:37:55.337Z,0
2018-06-14T00:38:55.888Z,0
2018-06-14T00:39:56.477Z,0
2018-06-14T00:40:56.981Z,0
2018-06-14T00:41:57.525Z,0
2018-06-14T00:42:58.076Z,0
2018-06-14T00:43:58.621Z,0
2018-06-14T00:44:59.166Z,0
2018-06-14T00:45:59.707Z,0
2018-06-14T00:47:00.247Z,0
2018-06-14T00:48:00.793Z,0
2018-06-14T00:49:01.339Z,0
2018-06-14T00:50:01.886Z,0
2018-06-14T00:51:02.431Z,0
2018-06-14T00:52:02.980Z,0
2018-06-14T00:53:03.525Z,0
2018-06-14T00:54:04.071Z,0
2018-06-14T00:55:04.615Z,0
2018-06-14T00:56:05.162Z,0
2018-06-14T00:57:05.712Z,0
2018-06-14T00:58:06.255Z,0
2018-06-14T00:59:06.803Z,0
2018-06-14T01:00:07.343Z,0
2018-06-14T01:01:07.883Z,0
2018-06-14T01:02:08.428Z,0
2018-06-14T01:03:08.972Z,0
2018-06-14T01:04:09.514Z,0
2018-06-14T01:05:10.062Z,0
2018-06-14T01:06:10.605Z,0
2018-06-14T01:07:11.152Z,0
2018-06-14T01:08:11.692Z,0
2018-06-14T01:09:12.232Z,0
2018-06-14T01:10:12.778Z,0
2018-06-14T01:11:13.315Z,0
2018-06-14T01:12:13.857Z,0
2018-06-14T01:13:14.401Z,0
2018-06-14T01:14:14.946Z,0
2018-06-14T01:15:15.485Z,0
2018-06-14T01:16:16.033Z,0
2018-06-14T01:17:16.584Z,0
2018-06-14T01:18:17.129Z,0
2018-06-14T01:19:17.672Z,0
2018-06-14T01:20:18.215Z,0
2018-06-14T01:21:18.762Z,0
2018-06-14T01:22:19.311Z,0
2018-06-14T01:23:19.856Z,0
2018-06-14T01:24:20.397Z,0
2018-06-14T01:25:20.944Z,0
2018-06-14T01:26:21.486Z,0
2018-06-14T01:27:22.034Z,0
2018-06-14T01:28:22.577Z,0
2018-06-14T01:29:23.122Z,0
2018-06-14T01:30:23.666Z,0
2018-06-14T01:31:24.207Z,0
2018-06-14T01:32:24.754Z,0
2018-06-14T01:33:25.295Z,0
2018-06-14T01:34:25.841Z,0
2018-06-14T01:35:26.384Z,0
2018-06-14T01:36:26.930Z,0
2018-06-14T01:37:27.473Z,0
2018-06-14T01:38:28.019Z,0
2018-06-14T01:39:28.559Z,0
2018-06-14T01:40:29.108Z,0
2018-06-14T01:41:29.766Z,0
2018-06-14T01:42:30.317Z,0
2018-06-14T01:43:30.864Z,0
2018-06-14T01:44:31.409Z,0
2018-06-14T01:45:31.960Z,0
2018-06-14T01:46:32.508Z,0
2018-06-14T01:47:33.052Z,0
2018-06-14T01:48:33.597Z,0
2018-06-14T01:49:34.144Z,0
2018-06-14T01:50:34.696Z,0
2018-06-14T01:51:35.242Z,0
2018-06-14T01:52:35.794Z,0
2018-06-14T01:53:36.339Z,0
2018-06-14T01:54:36.886Z,0
2018-06-14T01:55:37.430Z,0
2018-06-14T01:56:37.976Z,0
2018-06-14T01:57:38.520Z,0
2018-06-14T01:58:39.065Z,0
2018-06-14T01:59:39.613Z,0
2018-06-14T02:00:40.162Z,0
2018-06-14T02:01:40.701Z,0
2018-06-14T02:02:41.244Z,0
2018-06-14T02:03:41.790Z,0
2018-06-14T02:04:42.330Z,0
2018-06-14T02:05:42.878Z,0
2018-06-14T02:06:43.421Z,0
2018-06-14T02:07:43.964Z,0
2018-06-14T02:08:44.506Z,0
2018-06-14T02:09:45.051Z,0
2018-06-14T02:10:45.647Z,0
2018-06-14T02:11:46.190Z,0
2018-06-14T02:12:46.731Z,0
2018-06-14T02:13:47.275Z,0
2018-06-14T02:14:47.823Z,0
2018-06-14T02:15:48.368Z,0
2018-06-14T02:16:48.915Z,0
2018-06-14T02:17:49.453Z,0
2018-06-14T02:18:50.001Z,0
2018-06-14T02:19:50.543Z,0
2018-06-14T02:20:51.089Z,0
2018-06-14T02:21:51.638Z,0
2018-06-14T02:22:52.180Z,0
2018-06-14T02:23:52.726Z,0
2018-06-14T02:24:53.271Z,0
2018-06-14T02:25:53.821Z,0
2018-06-14T02:26:54.362Z,0
2018-06-14T02:27:54.916Z,0
2018-06-14T02:28:55.483Z,0
2018-06-14T02:29:56.011Z,0
2018-06-14T02:30:56.555Z,0
2018-06-14T02:31:57.094Z,4
2018-06-14T02:32:57.643Z,4
2018-06-14T02:33:58.189Z,0
2018-06-14T02:34:58.738Z,0
2018-06-14T02:35:59.280Z,0
2018-06-14T02:36:59.830Z,4
2018-06-14T02:38:00.377Z,4
2018-06-14T02:39:00.919Z,4
2018-06-14T02:40:01.469Z,4
2018-06-14T02:41:02.018Z,4
2018-06-14T02:42:02.567Z,8
2018-06-14T02:43:03.112Z,4
2018-06-14T02:44:03.659Z,8
2018-06-14T02:45:04.209Z,8
2018-06-14T02:46:04.759Z,12
2018-06-14T02:47:05.306Z,12
2018-06-14T02:48:05.843Z,12
2018-06-14T02:49:06.390Z,12
2018-06-14T02:50:06.931Z,16
2018-06-14T02:51:07.478Z,16
2018-06-14T02:52:08.035Z,20
2018-06-14T02:53:08.771Z,24
2018-06-14T02:54:09.318Z,24
2018-06-14T02:55:09.863Z,28
2018-06-14T02:56:10.418Z,32
2018-06-14T02:57:10.959Z,40
2018-06-14T02:58:11.505Z,44
2018-06-14T02:59:12.051Z,48
2018-06-14T03:00:12.600Z,52
2018-06-14T03:01:13.149Z,60
2018-06-14T03:02:13.697Z,68
2018-06-14T03:03:14.242Z,76
2018-06-14T03:04:14.792Z,84
2018-06-14T03:05:15.335Z,96
2018-06-14T03:06:15.879Z,104
2018-06-14T03:07:16.425Z,116
2018-06-14T03:08:16.974Z,128
2018-06-14T03:09:17.522Z,140
2018-06-14T03:10:18.063Z,156
2018-06-14T03:11:18.610Z,172
2018-06-14T03:12:19.160Z,188
2018-06-14T03:13:19.703Z,204
2018-06-14T03:14:20.248Z,220
2018-06-14T03:15:20.787Z,236
2018-06-14T03:16:21.333Z,256
2018-06-14T03:17:21.870Z,276
2018-06-14T03:18:22.414Z,304
2018-06-14T03:19:22.965Z,328
2018-06-14T03:20:23.514Z,356
2018-06-14T03:21:24.060Z,388
2018-06-14T03:22:24.616Z,420
2018-06-14T03:23:25.158Z,456
2018-06-14T03:24:25.712Z,492
2018-06-14T03:25:26.263Z,528
2018-06-14T03:26:26.808Z,564
2018-06-14T03:27:27.357Z,608
2018-06-14T03:28:27.900Z,656
2018-06-14T03:29:28.448Z,704
2018-06-14T03:30:28.992Z,764
2018-06-14T03:31:29.543Z,828
2018-06-14T03:32:30.116Z,892
2018-06-14T03:33:30.639Z,956
2018-06-14T03:34:31.185Z,1016
2018-06-14T03:35:31.745Z,1072
2018-06-14T03:36:32.285Z,1132
2018-06-14T03:37:32.832Z,1180
2018-06-14T03:38:33.386Z,1232
2018-06-14T03:39:33.939Z,1280
2018-06-14T03:40:34.487Z,1328
2018-06-14T03:41:35.039Z,1376
2018-06-14T03:42:35.592Z,1412
2018-06-14T03:43:36.149Z,1452
2018-06-14T03:44:36.698Z,1492
2018-06-14T03:45:37.250Z,1548
2018-06-14T03:46:37.797Z,1612
2018-06-14T03:47:38.397Z,1672
2018-06-14T03:48:38.949Z,1732
2018-06-14T03:49:39.495Z,1784
2018-06-14T03:50:40.046Z,1820
2018-06-14T03:51:40.593Z,1820
2018-06-14T03:52:41.146Z,1832
2018-06-14T03:53:41.699Z,1876
2018-06-14T03:54:42.245Z,1928
2018-06-14T03:55:42.795Z,1976
2018-06-14T03:56:43.342Z,2036
2018-06-14T03:57:43.889Z,2092
2018-06-14T03:58:44.434Z,2160
2018-06-14T03:59:44.982Z,2240
2018-06-14T04:00:45.532Z,2336
2018-06-14T04:01:46.080Z,2440
2018-06-14T04:02:46.632Z,2536
2018-06-14T04:03:47.184Z,2628
2018-06-14T04:04:47.732Z,2716
2018-06-14T04:05:48.281Z,2804
2018-06-14T04:06:48.831Z,2888
2018-06-14T04:07:49.375Z,2976
2018-06-14T04:08:49.926Z,3072
2018-06-14T04:09:50.472Z,3192
2018-06-14T04:10:51.026Z,3304
2018-06-14T04:11:51.580Z,3432
2018-06-14T04:12:52.128Z,3600
2018-06-14T04:13:52.684Z,3756
2018-06-14T04:14:53.233Z,3936
2018-06-14T04:15:53.781Z,4100
2018-06-14T04:16:54.338Z,4240
2018-06-14T04:17:54.885Z,4400
2018-06-14T04:18:55.437Z,4572
2018-06-14T04:19:55.986Z,4756
2018-06-14T04:20:56.543Z,4952
2018-06-14T04:21:57.096Z,5200
2018-06-14T04:22:57.653Z,5484
2018-06-14T04:23:58.206Z,5796
2018-06-14T04:24:58.758Z,6104
2018-06-14T04:25:59.310Z,6392
2018-06-14T04:26:59.864Z,6540
2018-06-14T04:28:00.411Z,6632
2018-06-14T04:29:00.959Z,6692
2018-06-14T04:30:01.520Z,6324
2018-06-14T04:31:02.068Z,5592
2018-06-14T04:32:02.667Z,5340
2018-06-14T04:33:03.265Z,5436
2018-06-14T04:34:03.819Z,5544
2018-06-14T04:35:04.374Z,5596
2018-06-14T04:36:04.924Z,5668
2018-06-14T04:37:05.521Z,5900
2018-06-14T04:38:06.047Z,6232
2018-06-14T04:39:06.594Z,6352
2018-06-14T04:40:07.149Z,6404
2018-06-14T04:41:07.717Z,6384
2018-06-14T04:42:08.255Z,6568
2018-06-14T04:43:08.809Z,6860
2018-06-14T04:44:09.367Z,7064
2018-06-14T04:45:09.970Z,7372
2018-06-14T04:46:10.524Z,7908
2018-06-14T04:47:11.077Z,8328
2018-06-14T04:48:11.627Z,8396
2018-06-14T04:49:12.202Z,8968
2018-06-14T04:50:12.734Z,9324
2018-06-14T04:51:13.293Z,10104
2018-06-14T04:52:13.852Z,10744
2018-06-14T04:53:14.409Z,11112
2018-06-14T04:54:14.986Z,11524
2018-06-14T04:55:15.596Z,11832
2018-06-14T04:56:16.151Z,12932
2018-06-14T04:57:16.714Z,12828
2018-06-14T04:58:17.271Z,13392
2018-06-14T04:59:17.829Z,13368
2018-06-14T05:00:18.387Z,13656
2018-06-14T05:01:18.944Z,14300
2018-06-14T05:02:19.555Z,13264
2018-06-14T05:03:20.103Z,13676
2018-06-14T05:04:20.657Z,13964
2018-06-14T05:05:21.214Z,15160
2018-06-14T05:06:21.774Z,16292
2018-06-14T05:07:22.329Z,16928
2018-06-14T05:08:22.893Z,17344
2018-06-14T05:09:23.453Z,16384
2018-06-14T05:10:24.013Z,14516
2018-06-14T05:11:24.577Z,12952
2018-06-14T05:12:25.139Z,13528
2018-06-14T05:13:25.697Z,14136
2018-06-14T05:14:26.254Z,13532
2018-06-14T05:15:26.817Z,12956
2018-06-14T05:16:27.376Z,11988
2018-06-14T05:17:27.937Z,11124
2018-06-14T05:18:28.490Z,10588
2018-06-14T05:19:29.044Z,10292
2018-06-14T05:20:29.604Z,9912
2018-06-14T05:21:30.165Z,9676
2018-06-14T05:22:30.720Z,9588
2018-06-14T05:23:31.313Z,9696
2018-06-14T05:24:31.836Z,9908
2018-06-14T05:25:32.393Z,10152
2018-06-14T05:26:32.956Z,10524
2018-06-14T05:27:33.520Z,10776
2018-06-14T05:28:34.105Z,10428
2018-06-14T05:29:34.691Z,9996
2018-06-14T05:30:35.216Z,10784
2018-06-14T05:31:35.770Z,11108
2018-06-14T05:32:36.326Z,10940
2018-06-14T05:33:36.874Z,10876
2018-06-14T05:34:37.430Z,11056
2018-06-14T05:35:37.995Z,11280
2018-06-14T05:36:38.555Z,11580
2018-06-14T05:37:39.114Z,11868
2018-06-14T05:38:39.665Z,12092
2018-06-14T05:39:40.220Z,12236
2018-06-14T05:40:40.780Z,12616
2018-06-14T05:41:41.333Z,13140
2018-06-14T05:42:41.893Z,13888
2018-06-14T05:43:42.452Z,14840
2018-06-14T05:44:43.061Z,15664
2018-06-14T05:45:43.549Z,15952
2018-06-14T05:46:44.102Z,15944
2018-06-14T05:47:44.678Z,16224
2018-06-14T05:48:45.219Z,16668
2018-06-14T05:49:45.777Z,16704
2018-06-14T05:50:46.340Z,16616
2018-06-14T05:51:46.896Z,16752
2018-06-14T05:52:47.452Z,19232
2018-06-14T05:53:48.009Z,17544
2018-06-14T05:54:48.569Z,17132
2018-06-14T05:55:49.128Z,16400
2018-06-14T05:56:49.749Z,16204
2018-06-14T05:57:50.307Z,16556
2018-06-14T05:58:50.861Z,16732
2018-06-14T05:59:51.420Z,16656
2018-06-14T06:00:51.978Z,16448
2018-06-14T06:01:52.539Z,16260
2018-06-14T06:02:53.122Z,16168
2018-06-14T06:03:53.704Z,16220
2018-06-14T06:04:54.259Z,16472
2018-06-14T06:05:54.820Z,17316
2018-06-14T06:06:55.373Z,19040
2018-06-14T06:07:55.932Z,19968
2018-06-14T06:08:56.490Z,20224
2018-06-14T06:09:57.050Z,21472
2018-06-14T06:10:57.611Z,21056
2018-06-14T06:11:58.190Z,21664
2018-06-14T06:12:58.732Z,23456
2018-06-14T06:13:59.291Z,22432
2018-06-14T06:14:59.849Z,23040
2018-06-14T06:16:00.409Z,24672
2018-06-14T06:17:00.967Z,26144
2018-06-14T06:18:01.528Z,26112
2018-06-14T06:19:02.104Z,25824
2018-06-14T06:20:02.645Z,27488
2018-06-14T06:21:03.206Z,35680
2018-06-14T06:22:03.768Z,28256
2018-06-14T06:23:04.335Z,26912
2018-06-14T06:24:04.896Z,27072
2018-06-14T06:25:05.451Z,27872
2018-06-14T06:26:06.026Z,21888
2018-06-14T06:27:06.576Z,28640
2018-06-14T06:28:07.136Z,20544
2018-06-14T06:29:07.706Z,27232
2018-06-14T06:30:08.267Z,24384
2018-06-14T06:31:08.830Z,32864
2018-06-14T06:32:09.399Z,28704
2018-06-14T06:33:10.000Z,31136
2018-06-14T06:34:10.545Z,27104
2018-06-14T06:35:11.090Z,29664
2018-06-14T06:36:11.657Z,28672
2018-06-14T06:37:12.274Z,19872
2018-06-14T06:38:12.840Z,20768
2018-06-14T06:39:13.407Z,18752
2018-06-14T06:40:13.973Z,19392
2018-06-14T06:41:14.544Z,13692
2018-06-14T06:42:15.108Z,11720
2018-06-14T06:43:15.666Z,12636
2018-06-14T06:44:16.233Z,18656
2018-06-14T06:45:16.799Z,18400
2018-06-14T06:46:17.363Z,15912
2018-06-14T06:47:17.926Z,23680
2018-06-14T06:48:18.492Z,32864
2018-06-14T06:49:19.055Z,41344
2018-06-14T06:50:19.626Z,42592
2018-06-14T06:51:20.187Z,42528
2018-06-14T06:52:20.758Z,42048
2018-06-14T06:53:21.368Z,41696
2018-06-14T06:54:21.887Z,39328
2018-06-14T06:55:22.452Z,34304
2018-06-14T06:56:23.029Z,43520
2018-06-14T06:57:23.593Z,44576
2018-06-14T06:58:24.172Z,42816
2018-06-14T06:59:24.740Z,43136
2018-06-14T07:00:25.314Z,44064
2018-06-14T07:01:25.889Z,45344
2018-06-14T07:02:26.467Z,45472
2018-06-14T07:03:27.039Z,45984
2018-06-14T07:04:27.610Z,46016
2018-06-14T07:05:28.175Z,46880
2018-06-14T07:06:28.792Z,46048
2018-06-14T07:07:29.315Z,47904
2018-06-14T07:08:29.888Z,39136
2018-06-14T07:09:30.468Z,49568
2018-06-14T07:10:31.042Z,50144
2018-06-14T07:11:31.678Z,49888
2018-06-14T07:12:32.229Z,49440
2018-06-14T07:13:32.801Z,48320
2018-06-14T07:14:33.371Z,47776
2018-06-14T07:15:33.946Z,48800
2018-06-14T07:16:34.512Z,50400
2018-06-14T07:17:35.134Z,52736
2018-06-14T07:18:35.701Z,48992
2018-06-14T07:19:36.320Z,49696
2018-06-14T07:20:36.893Z,54400
2018-06-14T07:21:37.538Z,54144
2018-06-14T07:22:38.034Z,54304
2018-06-14T07:23:38.612Z,54144
2018-06-14T07:24:39.184Z,54016
2018-06-14T07:25:39.759Z,54592
2018-06-14T07:26:40.330Z,55616
2018-06-14T07:27:40.927Z,56736
2018-06-14T07:28:41.464Z,55968
2018-06-14T07:29:42.041Z,56928
2018-06-14T07:30:42.614Z,58624
2018-06-14T07:31:43.181Z,61184
2018-06-14T07:32:43.757Z,63360
2018-06-14T07:33:44.332Z,65632
2018-06-14T07:34:44.907Z,65120
2018-06-14T07:35:45.473Z,62912
2018-06-14T07:36:46.045Z,59232
2018-06-14T07:37:46.619Z,59584
2018-06-14T07:38:47.205Z,60192
2018-06-14T07:39:47.775Z,63712
2018-06-14T07:40:48.346Z,65056
2018-06-14T07:41:48.923Z,67136
2018-06-14T07:42:49.491Z,69536
2018-06-14T07:43:50.063Z,67776
2018-06-14T07:44:50.635Z,65120
2018-06-14T07:45:51.202Z,63072
2018-06-14T07:46:51.779Z,15292
2018-06-14T07:47:52.351Z,15724
2018-06-14T07:48:52.924Z,72000
2018-06-14T07:49:53.510Z,73664
2018-06-14T07:50:54.080Z,74176
2018-06-14T07:51:54.651Z,75136
2018-06-14T07:52:55.222Z,76416
2018-06-14T07:53:55.790Z,38272
2018-06-14T07:54:56.362Z,52928
2018-06-14T07:55:56.930Z,24192
2018-06-14T07:56:57.504Z,63776
2018-06-14T07:57:58.130Z,71200
2018-06-14T07:58:58.701Z,70624
2018-06-14T07:59:59.314Z,64512
2018-06-14T08:00:59.842Z,45664
2018-06-14T08:02:00.414Z,17868
2018-06-14T08:03:00.986Z,17104
2018-06-14T08:04:01.557Z,72704
2018-06-14T08:05:02.124Z,73152
2018-06-14T08:06:02.701Z,75808
2018-06-14T08:07:03.271Z,80384
2018-06-14T08:08:03.854Z,73632
2018-06-14T08:09:04.466Z,33408
2018-06-14T08:10:05.037Z,24320
2018-06-14T08:11:05.608Z,44256
2018-06-14T08:12:06.242Z,38016
2018-06-14T08:13:06.803Z,45248
2018-06-14T08:14:07.377Z,57312
2018-06-14T08:15:07.957Z,61152
2018-06-14T08:16:08.513Z,63360
2018-06-14T08:17:09.137Z,51136
2018-06-14T08:18:09.706Z,24928
2018-06-14T08:19:10.274Z,83936
2018-06-14T08:20:10.846Z,82656
2018-06-14T08:21:11.410Z,58336
2018-06-14T08:22:11.979Z,20768
2018-06-14T08:23:12.549Z,74688
2018-06-14T08:24:13.165Z,78880
2018-06-14T08:25:13.731Z,80224
2018-06-14T08:26:14.305Z,83328
2018-06-14T08:27:14.876Z,84448
2018-06-14T08:28:15.441Z,26272
2018-06-14T08:29:16.017Z,66752
2018-06-14T08:30:16.702Z,25440
2018-06-14T08:31:17.278Z,92640
2018-06-14T08:32:17.845Z,88416
2018-06-14T08:33:18.413Z,86528
2018-06-14T08:34:18.983Z,87680
2018-06-14T08:35:19.600Z,90432
2018-06-14T08:36:20.174Z,94176
2018-06-14T08:37:20.746Z,98688
2018-06-14T08:38:21.319Z,33568
2018-06-14T08:39:21.892Z,78240
2018-06-14T08:40:22.469Z,25760
2018-06-14T08:41:23.036Z,40416
2018-06-14T08:42:23.607Z,27552
2018-06-14T08:43:24.178Z,86848
2018-06-14T08:44:24.748Z,91712
2018-06-14T08:45:25.322Z,95168
2018-06-14T08:46:25.890Z,97152
2018-06-14T08:47:26.456Z,57760
2018-06-14T08:48:27.076Z,36000
2018-06-14T08:49:27.647Z,88128
2018-06-14T08:50:28.210Z,82208
2018-06-14T08:51:28.810Z,40672
2018-06-14T08:52:29.381Z,25664
2018-06-14T08:53:29.948Z,66016
2018-06-14T08:54:30.518Z,36544
2018-06-14T08:55:31.089Z,40704
2018-06-14T08:56:31.659Z,89696
2018-06-14T08:57:32.228Z,77088
2018-06-14T08:58:32.798Z,97312
2018-06-14T08:59:33.374Z,99424
2018-06-14T09:00:33.943Z,29888
2018-06-14T09:01:34.514Z,39872
2018-06-14T09:02:35.083Z,23680
2018-06-14T09:03:35.653Z,27456
2018-06-14T09:04:36.225Z,29056
2018-06-14T09:05:36.795Z,98816
2018-06-14T09:06:37.364Z,99904
2018-06-14T09:07:37.946Z,98336
2018-06-14T09:08:38.571Z,98912
2018-06-14T09:09:39.134Z,96544
2018-06-14T09:10:39.756Z,94944
2018-06-14T09:11:40.322Z,93504
2018-06-14T09:12:40.892Z,94464
2018-06-14T09:13:41.465Z,98112
2018-06-14T09:14:42.038Z,99712
2018-06-14T09:15:42.608Z,99872
2018-06-14T09:16:43.184Z,100864
2018-06-14T09:17:43.758Z,89792
2018-06-14T09:18:44.328Z,56576
2018-06-14T09:19:44.897Z,79296
2018-06-14T09:20:45.471Z,91904
2018-06-14T09:21:46.036Z,102336
2018-06-14T09:22:46.611Z,106528
2018-06-14T09:23:47.176Z,109696
2018-06-14T09:24:47.747Z,110080
2018-06-14T09:25:48.320Z,109920
2018-06-14T09:26:48.892Z,104256
2018-06-14T09:27:49.486Z,96800
2018-06-14T09:28:50.040Z,91808
2018-06-14T09:29:50.661Z,89792
2018-06-14T09:30:51.191Z,93280
2018-06-14T09:31:51.758Z,101408
2018-06-14T09:32:52.330Z,110112
2018-06-14T09:33:52.914Z,113280
2018-06-14T09:34:53.471Z,112576
2018-06-14T09:35:54.052Z,112928
2018-06-14T09:36:54.617Z,81600
2018-06-14T09:37:55.194Z,107936
2018-06-14T09:38:55.768Z,113024
2018-06-14T09:39:56.344Z,106048
2018-06-14T09:40:56.917Z,55520
2018-06-14T09:41:57.486Z,114208
2018-06-14T09:42:58.081Z,115712
2018-06-14T09:43:58.626Z,118560
2018-06-14T09:44:59.196Z,116480
2018-06-14T09:45:59.772Z,107840
2018-06-14T09:47:00.336Z,93056
2018-06-14T09:48:00.917Z,82176
2018-06-14T09:49:01.491Z,57952
2018-06-14T09:50:02.064Z,110944
2018-06-14T09:51:02.692Z,115008
2018-06-14T09:52:03.256Z,115648
2018-06-14T09:53:03.828Z,91520
2018-06-14T09:54:04.401Z,90432
2018-06-14T09:55:04.971Z,73824
2018-06-14T09:56:05.585Z,43744
2018-06-14T09:57:06.176Z,43296
2018-06-14T09:58:06.755Z,47168
2018-06-14T09:59:07.326Z,87520
2018-06-14T10:00:07.902Z,83360
2018-06-14T10:01:08.466Z,55520
2018-06-14T10:02:09.064Z,47936
2018-06-14T10:03:09.730Z,56224
2018-06-14T10:04:10.306Z,93536
2018-06-14T10:05:10.908Z,100032
2018-06-14T10:06:11.517Z,108576
2018-06-14T10:07:12.111Z,108704
2018-06-14T10:08:12.669Z,108224
2018-06-14T10:09:13.245Z,60736
2018-06-14T10:10:13.825Z,66208
2018-06-14T10:11:14.416Z,56736
2018-06-14T10:12:14.990Z,78336
2018-06-14T10:13:15.554Z,86624
2018-06-14T10:14:16.130Z,86144
2018-06-14T10:15:16.709Z,88448
2018-06-14T10:16:17.298Z,79776
2018-06-14T10:17:17.899Z,82528
2018-06-14T10:18:18.480Z,101856
2018-06-14T10:19:19.116Z,85632
2018-06-14T10:20:19.693Z,71200
2018-06-14T10:21:20.286Z,67648
2018-06-14T10:22:20.893Z,66176
2018-06-14T10:23:21.473Z,67232
2018-06-14T10:24:22.045Z,67776
2018-06-14T10:25:22.623Z,64896
2018-06-14T10:26:23.220Z,63232
2018-06-14T10:27:23.829Z,61664
2018-06-14T10:28:24.427Z,62208
2018-06-14T10:29:25.046Z,60288
2018-06-14T10:30:25.614Z,60608
2018-06-14T10:31:26.218Z,65024
2018-06-14T10:32:26.813Z,65024
2018-06-14T10:33:27.397Z,71488
2018-06-14T10:34:28.004Z,76640
2018-06-14T10:35:28.607Z,68768
2018-06-14T10:36:29.196Z,70400
2018-06-14T10:37:29.787Z,74144
2018-06-14T10:38:30.368Z,76864
2018-06-14T10:39:30.948Z,76352
2018-06-14T10:40:31.597Z,81920
2018-06-14T10:41:32.246Z,77696
2018-06-14T10:42:32.852Z,71232
2018-06-14T10:43:33.534Z,74304
2018-06-14T10:44:34.189Z,76832
2018-06-14T10:45:34.862Z,72000
2018-06-14T10:46:35.492Z,73760
2018-06-14T10:47:36.107Z,74016
2018-06-14T10:48:36.736Z,66208
2018-06-14T10:49:37.421Z,70784
2018-06-14T10:50:38.072Z,100896
2018-06-14T10:51:38.653Z,86880
2018-06-14T10:52:39.281Z,110400
2018-06-14T10:53:39.918Z,88160
2018-06-14T10:54:40.559Z,96192
2018-06-14T10:55:41.212Z,84832
2018-06-14T10:56:41.842Z,83360
2018-06-14T10:57:42.483Z,74368
2018-06-14T10:58:43.110Z,92000
2018-06-14T10:59:43.746Z,63744
2018-06-14T11:00:44.377Z,101152
2018-06-14T11:01:44.958Z,127520
2018-06-14T11:02:45.564Z,140768
2018-06-14T11:03:46.153Z,126816
2018-06-14T11:04:46.754Z,104128
2018-06-14T11:05:47.363Z,115040
2018-06-14T11:06:48.028Z,101792
2018-06-14T11:07:48.649Z,97728
2018-06-14T11:08:49.273Z,101344
2018-06-14T11:09:49.884Z,87872
2018-06-14T11:10:50.472Z,111328
2018-06-14T11:11:51.090Z,90144
2018-06-14T11:12:51.713Z,76608
2018-06-14T11:13:52.351Z,74464
2018-06-14T11:14:52.977Z,67872
2018-06-14T11:15:53.604Z,65280
2018-06-14T11:16:54.225Z,65440
2018-06-14T11:17:54.842Z,65184
2018-06-14T11:18:55.488Z,65376
2018-06-14T11:19:56.121Z,67680
2018-06-14T11:20:56.729Z,66112
2018-06-14T11:21:57.330Z,63136
2018-06-14T11:22:57.940Z,62464
2018-06-14T11:23:58.631Z,60416
2018-06-14T11:24:59.177Z,57888
2018-06-14T11:25:59.763Z,55680
2018-06-14T11:27:00.336Z,55456
2018-06-14T11:28:00.933Z,56064
2018-06-14T11:29:01.526Z,57632
2018-06-14T11:30:02.141Z,57056
2018-06-14T11:31:02.709Z,55840
2018-06-14T11:32:03.290Z,54432
2018-06-14T11:33:03.892Z,53024
2018-06-14T11:34:04.501Z,51744
2018-06-14T11:35:05.164Z,50368
2018-06-14T11:36:05.806Z,49120
2018-06-14T11:37:06.402Z,47776
2018-06-14T11:38:06.966Z,46560
2018-06-14T11:39:07.593Z,45248
2018-06-14T11:40:08.162Z,44288
2018-06-14T11:41:08.737Z,43296
2018-06-14T11:42:09.299Z,42752
2018-06-14T11:43:09.877Z,42272
2018-06-14T11:44:10.479Z,42560
2018-06-14T11:45:11.088Z,44480
2018-06-14T11:46:11.671Z,46880
2018-06-14T11:47:12.272Z,49920
2018-06-14T11:48:12.855Z,55424
2018-06-14T11:49:13.420Z,60416
2018-06-14T11:50:13.986Z,79104
2018-06-14T11:51:14.584Z,113344
2018-06-14T11:52:15.163Z,143904
2018-06-14T11:53:15.766Z,95744
2018-06-14T11:54:16.392Z,69504
2018-06-14T11:55:16.926Z,70496
2018-06-14T11:56:17.518Z,68224
2018-06-14T11:57:18.102Z,67648
2018-06-14T11:58:18.682Z,69536
2018-06-14T11:59:19.307Z,75136
2018-06-14T12:00:19.884Z,74560
2018-06-14T12:01:20.482Z,73760
2018-06-14T12:02:21.034Z,76896
2018-06-14T12:03:21.609Z,66144
2018-06-14T12:04:22.196Z,67840
2018-06-14T12:05:22.895Z,74528
2018-06-14T12:06:23.480Z,91552
2018-06-14T12:07:24.048Z,98560
2018-06-14T12:08:24.703Z,84768
2018-06-14T12:09:25.214Z,87872
2018-06-14T12:10:25.803Z,70592
2018-06-14T12:11:26.392Z,81312
2018-06-14T12:12:26.968Z,84160
2018-06-14T12:13:27.608Z,92544
2018-06-14T12:14:28.181Z,89728
2018-06-14T12:15:28.763Z,110112
2018-06-14T12:16:29.391Z,104416
2018-06-14T12:17:29.991Z,100512
2018-06-14T12:18:30.590Z,90176
2018-06-14T12:19:31.184Z,91136
2018-06-14T12:20:31.762Z,87200
2018-06-14T12:21:32.330Z,78272
2018-06-14T12:22:32.901Z,78944
2018-06-14T12:23:33.521Z,92864
2018-06-14T12:24:34.097Z,89920
2018-06-14T12:25:34.671Z,100384
2018-06-14T12:26:35.239Z,86336
2018-06-14T12:27:35.827Z,66304
2018-06-14T12:28:36.407Z,60000
2018-06-14T12:29:36.984Z,57536
2018-06-14T12:30:37.595Z,55840
2018-06-14T12:31:38.206Z,55104
2018-06-14T12:32:38.720Z,54592
2018-06-14T12:33:39.297Z,54496
2018-06-14T12:34:39.867Z,54496
2018-06-14T12:35:40.443Z,54592
2018-06-14T12:36:41.017Z,55296
2018-06-14T12:37:41.658Z,56256
2018-06-14T12:38:42.159Z,56608
2018-06-14T12:39:42.726Z,58784
2018-06-14T12:40:43.295Z,54560
2018-06-14T12:41:43.861Z,52480
2018-06-14T12:42:44.429Z,51840
2018-06-14T12:43:45.005Z,51296
2018-06-14T12:44:45.572Z,51232
2018-06-14T12:45:46.141Z,51776
2018-06-14T12:46:46.716Z,52768
2018-06-14T12:47:47.288Z,53088
2018-06-14T12:48:47.858Z,53472
2018-06-14T12:49:48.420Z,55296
2018-06-14T12:50:48.986Z,56384
2018-06-14T12:51:49.554Z,55232
2018-06-14T12:52:50.142Z,54848
2018-06-14T12:53:50.724Z,53952
2018-06-14T12:54:51.293Z,52768
2018-06-14T12:55:51.860Z,50784
2018-06-14T12:56:52.433Z,49600
2018-06-14T12:57:53.017Z,48032
2018-06-14T12:58:53.623Z,46176
2018-06-14T12:59:54.226Z,44544
2018-06-14T13:00:54.801Z,43104
2018-06-14T13:01:55.376Z,41824
2018-06-14T13:02:55.954Z,40832
2018-06-14T13:03:56.525Z,39936
2018-06-14T13:04:57.092Z,39200
2018-06-14T13:05:57.663Z,38720
2018-06-14T13:06:58.247Z,38528
2018-06-14T13:07:58.812Z,38752
2018-06-14T13:08:59.392Z,39104
2018-06-14T13:09:59.980Z,39520
2018-06-14T13:11:00.562Z,39872
2018-06-14T13:12:01.255Z,40256
2018-06-14T13:13:01.846Z,40448
2018-06-14T13:14:02.423Z,40640
2018-06-14T13:15:02.994Z,40832
2018-06-14T13:16:03.555Z,40992
2018-06-14T13:17:04.129Z,41248
2018-06-14T13:18:04.696Z,41504
2018-06-14T13:19:05.263Z,41856
2018-06-14T13:20:05.835Z,42336
2018-06-14T13:21:06.405Z,42848
2018-06-14T13:22:06.974Z,43456
2018-06-14T13:23:07.545Z,44288
2018-06-14T13:24:08.132Z,45120
2018-06-14T13:25:08.714Z,45824
2018-06-14T13:26:09.289Z,46912